createdAt,value
2018-12-13T00:00:47.403Z,1023.14
2018-12-13T00:01:47.113Z,1023.08
2018-12-13T00:02:47.267Z,1023.18
2018-12-13T00:03:47.341Z,1023.11
2018-12-13T00:04:47.101Z,1023.11
2018-12-13T00:05:47.204Z,1023.1
2018-12-13T00:06:47.507Z,1023.07
2018-12-13T00:07:47.262Z,1023.01
2018-12-13T00:08:47.163Z,1023.06
2018-12-13T00:09:47.215Z,1023.02
2018-12-13T00:10:47.120Z,1023
2018-12-13T00:11:47.590Z,1022.99
2018-12-13T00:12:47.501Z,1022.99
2018-12-13T00:13:47.004Z,1022.95
2018-12-13T00:14:47.151Z,1022.91
2018-12-13T00:15:47.189Z,1022.92
2018-12-13T00:16:47.544Z,1022.97
2018-12-13T00:17:47.446Z,1022.93
2018-12-13T00:18:47.252Z,1022.87
2018-12-13T00:19:47.593Z,1022.94
2018-12-13T00:20:47.443Z,1022.88
2018-12-13T00:21:47.490Z,1022.88
2018-12-13T00:22:47.603Z,1022.96
2018-12-13T00:23:47.261Z,1022.95
2018-12-13T00:24:47.091Z,1022.94
2018-12-13T00:25:47.334Z,1022.9
2018-12-13T00:26:47.067Z,1022.91
2018-12-13T00:27:47.157Z,1022.96
2018-12-13T00:28:47.124Z,1022.93
2018-12-13T00:29:47.256Z,1022.86
2018-12-13T00:30:48.035Z,1022.9
2018-12-13T00:31:47.321Z,1022.89
2018-12-13T00:32:47.764Z,1022.93
2018-12-13T00:33:47.140Z,1022.96
2018-12-13T00:34:47.326Z,1022.92
2018-12-13T00:35:47.463Z,1022.96
2018-12-13T00:36:47.373Z,1022.96
2018-12-13T00:37:47.337Z,1022.94
2018-12-13T00:38:47.114Z,1022.97
2018-12-13T00:39:47.461Z,1023.01
2018-12-13T00:40:47.677Z,1022.98
2018-12-13T00:41:47.341Z,1022.99
2018-12-13T00:42:46.938Z,1022.97
2018-12-13T00:43:47.144Z,1022.98
2018-12-13T00:44:47.229Z,1022.98
2018-12-13T00:45:47.594Z,1022.94
2018-12-13T00:46:47.617Z,1022.95
2018-12-13T00:47:47.043Z,1022.95
2018-12-13T00:48:47.206Z,1022.89
2018-12-13T00:49:47.075Z,1022.96
2018-12-13T00:50:47.262Z,1022.94
2018-12-13T00:51:47.286Z,1022.91
2018-12-13T00:52:47.986Z,1022.97
2018-12-13T00:53:47.322Z,1022.91
2018-12-13T00:54:47.230Z,1022.89
2018-12-13T00:55:47.138Z,1022.93
2018-12-13T00:56:47.402Z,1022.88
2018-12-13T00:57:47.224Z,1022.88
2018-12-13T00:58:47.158Z,1022.87
2018-12-13T00:59:47.343Z,1022.8
2018-12-13T01:00:47.210Z,1022.82
2018-12-13T01:01:47.113Z,1022.88
2018-12-13T01:02:47.168Z,1022.82
2018-12-13T01:03:47.707Z,1022.89
2018-12-13T01:04:47.734Z,1022.87
2018-12-13T01:05:47.309Z,1022.85
2018-12-13T01:06:47.145Z,1022.87
2018-12-13T01:07:47.024Z,1022.8
2018-12-13T01:08:47.110Z,1022.81
2018-12-13T01:09:47.243Z,1022.81
2018-12-13T01:10:47.777Z,1022.77
2018-12-13T01:11:47.148Z,1022.8
2018-12-13T01:12:47.304Z,1022.8
2018-12-13T01:13:47.012Z,1022.81
2018-12-13T01:14:47.184Z,1022.81
2018-12-13T01:15:47.197Z,1022.82
2018-12-13T01:16:46.985Z,1022.78
2018-12-13T01:17:47.258Z,1022.76
2018-12-13T01:18:47.218Z,1022.8
2018-12-13T01:19:47.175Z,1022.81
2018-12-13T01:20:47.091Z,1022.82
2018-12-13T01:21:47.577Z,1022.78
2018-12-13T01:22:47.102Z,1022.79
2018-12-13T01:23:47.183Z,1022.81
2018-12-13T01:24:47.209Z,1022.84
2018-12-13T01:25:47.558Z,1022.84
2018-12-13T01:26:47.203Z,1022.82
2018-12-13T01:27:47.126Z,1022.83
2018-12-13T01:28:47.142Z,1022.76
2018-12-13T01:29:47.123Z,1022.83
2018-12-13T01:30:47.143Z,1022.79
2018-12-13T01:31:47.804Z,1022.8
2018-12-13T01:32:47.368Z,1022.78
2018-12-13T01:33:47.291Z,1022.77
2018-12-13T01:34:47.003Z,1022.79
2018-12-13T01:35:47.408Z,1022.75
2018-12-13T01:36:52.674Z,1022.73
2018-12-13T01:37:47.269Z,1022.76
2018-12-13T01:38:47.440Z,1022.78
2018-12-13T01:39:47.369Z,1022.73
2018-12-13T01:40:47.289Z,1022.73
2018-12-13T01:41:47.629Z,1022.71
2018-12-13T01:42:47.537Z,1022.7
2018-12-13T01:43:47.804Z,1022.7
2018-12-13T01:44:47.125Z,1022.74
2018-12-13T01:45:47.359Z,1022.71
2018-12-13T01:46:47.062Z,1022.69
2018-12-13T01:47:47.463Z,1022.67
2018-12-13T01:48:47.679Z,1022.67
2018-12-13T01:49:47.164Z,1022.7
2018-12-13T01:50:47.476Z,1022.63
2018-12-13T01:51:47.045Z,1022.66
2018-12-13T01:52:46.998Z,1022.63
2018-12-13T01:53:47.393Z,1022.63
2018-12-13T01:54:47.096Z,1022.61
2018-12-13T01:55:47.536Z,1022.6
2018-12-13T01:56:47.428Z,1022.6
2018-12-13T01:57:47.524Z,1022.55
2018-12-13T01:58:47.352Z,1022.6
2018-12-13T01:59:47.189Z,1022.6
2018-12-13T02:00:47.139Z,1022.6
2018-12-13T02:01:47.068Z,1022.6
2018-12-13T02:02:47.718Z,1022.63
2018-12-13T02:03:47.273Z,1022.58
2018-12-13T02:04:47.618Z,1022.59
2018-12-13T02:05:47.397Z,1022.6
2018-12-13T02:06:47.590Z,1022.63
2018-12-13T02:07:47.320Z,1022.58
2018-12-13T02:08:47.098Z,1022.56
2018-12-13T02:09:47.280Z,1022.59
2018-12-13T02:10:47.311Z,1022.58
2018-12-13T02:11:47.320Z,1022.59
2018-12-13T02:12:47.076Z,1022.57
2018-12-13T02:13:47.238Z,1022.6
2018-12-13T02:14:47.076Z,1022.55
2018-12-13T02:15:47.368Z,1022.55
2018-12-13T02:16:47.344Z,1022.51
2018-12-13T02:17:47.132Z,1022.49
2018-12-13T02:18:47.155Z,1022.51
2018-12-13T02:19:47.895Z,1022.45
2018-12-13T02:20:47.178Z,1022.48
2018-12-13T02:21:47.042Z,1022.48
2018-12-13T02:22:47.177Z,1022.41
2018-12-13T02:23:47.320Z,1022.41
2018-12-13T02:24:47.124Z,1022.43
2018-12-13T02:25:47.610Z,1022.47
2018-12-13T02:26:47.275Z,1022.46
2018-12-13T02:27:47.315Z,1022.46
2018-12-13T02:28:47.219Z,1022.4
2018-12-13T02:29:47.171Z,1022.42
2018-12-13T02:30:47.368Z,1022.36
2018-12-13T02:31:47.107Z,1022.36
2018-12-13T02:32:47.488Z,1022.35
2018-12-13T02:33:47.141Z,1022.34
2018-12-13T02:34:47.180Z,1022.35
2018-12-13T02:35:47.245Z,1022.33
2018-12-13T02:36:47.469Z,1022.35
2018-12-13T02:37:47.023Z,1022.33
2018-12-13T02:38:47.059Z,1022.26
2018-12-13T02:39:47.486Z,1022.3
2018-12-13T02:40:47.524Z,1022.31
2018-12-13T02:41:47.428Z,1022.26
2018-12-13T02:42:47.002Z,1022.28
2018-12-13T02:43:47.648Z,1022.2
2018-12-13T02:44:47.222Z,1022.18
2018-12-13T02:45:47.265Z,1022.18
2018-12-13T02:46:46.991Z,1022.22
2018-12-13T02:47:47.490Z,1022.2
2018-12-13T02:48:47.459Z,1022.26
2018-12-13T02:49:47.273Z,1022.24
2018-12-13T02:50:47.410Z,1022.26
2018-12-13T02:51:47.274Z,1022.21
2018-12-13T02:52:47.118Z,1022.23
2018-12-13T02:53:47.210Z,1022.28
2018-12-13T02:54:47.188Z,1022.21
2018-12-13T02:55:47.199Z,1022.2
2018-12-13T02:56:47.523Z,1022.22
2018-12-13T02:57:47.149Z,1022.17
2018-12-13T02:58:47.215Z,1022.2
2018-12-13T02:59:47.070Z,1022.2
2018-12-13T03:00:47.112Z,1022.18
2018-12-13T03:01:47.568Z,1022.18
2018-12-13T03:02:47.328Z,1022.11
2018-12-13T03:03:47.251Z,1022.09
2018-12-13T03:04:47.074Z,1022.06
2018-12-13T03:05:47.210Z,1022.06
2018-12-13T03:06:47.393Z,1022.06
2018-12-13T03:07:47.159Z,1022.13
2018-12-13T03:08:47.348Z,1022.07
2018-12-13T03:09:47.091Z,1022.01
2018-12-13T03:10:47.124Z,1022.02
2018-12-13T03:11:47.340Z,1022.02
2018-12-13T03:12:47.537Z,1022.06
2018-12-13T03:13:47.247Z,1022.04
2018-12-13T03:14:47.446Z,1022.03
2018-12-13T03:15:47.572Z,1021.99
2018-12-13T03:16:47.382Z,1022.02
2018-12-13T03:17:47.294Z,1022.01
2018-12-13T03:18:47.119Z,1022
2018-12-13T03:19:47.390Z,1022.03
2018-12-13T03:20:47.002Z,1022.07
2018-12-13T03:21:47.104Z,1022.04
2018-12-13T03:22:47.053Z,1022.05
2018-12-13T03:23:47.098Z,1022
2018-12-13T03:24:47.112Z,1022.01
2018-12-13T03:25:47.540Z,1022.05
2018-12-13T03:26:48.075Z,1022.08
2018-12-13T03:27:47.067Z,1022.05
2018-12-13T03:28:47.355Z,1021.98
2018-12-13T03:29:48.036Z,1022
2018-12-13T03:30:47.511Z,1022
2018-12-13T03:31:46.995Z,1021.99
2018-12-13T03:32:47.099Z,1021.93
2018-12-13T03:33:47.085Z,1021.9
2018-12-13T03:34:47.269Z,1021.89
2018-12-13T03:35:47.427Z,1021.9
2018-12-13T03:36:47.236Z,1021.86
2018-12-13T03:37:47.079Z,1021.81
2018-12-13T03:38:47.123Z,1021.83
2018-12-13T03:39:47.226Z,1021.78
2018-12-13T03:40:47.042Z,1021.86
2018-12-13T03:41:47.182Z,1021.81
2018-12-13T03:42:46.959Z,1021.85
2018-12-13T03:43:47.192Z,1021.79
2018-12-13T03:44:47.009Z,1021.77
2018-12-13T03:45:47.064Z,1021.84
2018-12-13T03:46:47.036Z,1021.77
2018-12-13T03:47:47.072Z,1021.72
2018-12-13T03:48:47.543Z,1021.8
2018-12-13T03:49:47.261Z,1021.71
2018-12-13T03:50:47.162Z,1021.7
2018-12-13T03:51:47.034Z,1021.71
2018-12-13T03:52:47.204Z,1021.7
2018-12-13T03:53:47.345Z,1021.72
2018-12-13T03:54:47.153Z,1021.65
2018-12-13T03:55:47.153Z,1021.65
2018-12-13T03:56:46.997Z,1021.62
2018-12-13T03:57:47.215Z,1021.65
2018-12-13T03:58:47.241Z,1021.62
2018-12-13T03:59:46.989Z,1021.59
2018-12-13T04:00:47.420Z,1021.53
2018-12-13T04:01:47.029Z,1021.53
2018-12-13T04:02:47.322Z,1021.51
2018-12-13T04:03:47.698Z,1021.52
2018-12-13T04:04:47.517Z,1021.5
2018-12-13T04:05:47.083Z,1021.5
2018-12-13T04:06:47.010Z,1021.48
2018-12-13T04:07:47.244Z,1021.46
2018-12-13T04:08:47.039Z,1021.38
2018-12-13T04:09:47.138Z,1021.43
2018-12-13T04:10:47.641Z,1021.44
2018-12-13T04:11:47.123Z,1021.4
2018-12-13T04:12:47.066Z,1021.32
2018-12-13T04:13:47.184Z,1021.36
2018-12-13T04:14:47.483Z,1021.3
2018-12-13T04:15:47.295Z,1021.33
2018-12-13T04:16:47.105Z,1021.32
2018-12-13T04:17:47.180Z,1021.31
2018-12-13T04:18:47.276Z,1021.32
2018-12-13T04:19:47.284Z,1021.3
2018-12-13T04:20:47.196Z,1021.26
2018-12-13T04:21:47.637Z,1021.28
2018-12-13T04:22:47.380Z,1021.26
2018-12-13T04:23:47.449Z,1021.28
2018-12-13T04:24:46.967Z,1021.27
2018-12-13T04:25:47.148Z,1021.3
2018-12-13T04:26:47.357Z,1021.28
2018-12-13T04:27:47.442Z,1021.3
2018-12-13T04:28:47.224Z,1021.26
2018-12-13T04:29:47.487Z,1021.28
2018-12-13T04:30:47.054Z,1021.34
2018-12-13T04:31:47.017Z,1021.32
2018-12-13T04:32:47.102Z,1021.28
2018-12-13T04:33:47.278Z,1021.26
2018-12-13T04:34:46.925Z,1021.27
2018-12-13T04:35:47.147Z,1021.27
2018-12-13T04:36:47.235Z,1021.27
2018-12-13T04:37:47.049Z,1021.28
2018-12-13T04:38:46.977Z,1021.24
2018-12-13T04:39:47.155Z,1021.26
2018-12-13T04:40:47.171Z,1021.24
2018-12-13T04:41:47.086Z,1021.23
2018-12-13T04:42:47.349Z,1021.26
2018-12-13T04:43:47.000Z,1021.19
2018-12-13T04:44:47.038Z,1021.26
2018-12-13T04:45:47.017Z,1021.26
2018-12-13T04:46:47.061Z,1021.26
2018-12-13T04:47:47.119Z,1021.18
2018-12-13T04:48:47.064Z,1021.21
2018-12-13T04:49:47.397Z,1021.15
2018-12-13T04:50:47.059Z,1021.19
2018-12-13T04:51:47.312Z,1021.21
2018-12-13T04:52:46.955Z,1021.12
2018-12-13T04:53:47.130Z,1021.19
2018-12-13T04:54:48.065Z,1021.17
2018-12-13T04:55:47.062Z,1021.14
2018-12-13T04:56:47.167Z,1021.16
2018-12-13T04:57:47.258Z,1021.2
2018-12-13T04:58:47.065Z,1021.17
2018-12-13T04:59:46.936Z,1021.2
2018-12-13T05:00:47.190Z,1021.19
2018-12-13T05:01:46.914Z,1021.14
2018-12-13T05:02:47.709Z,1021.19
2018-12-13T05:03:47.297Z,1021.11
2018-12-13T05:04:47.089Z,1021.1
2018-12-13T05:05:47.167Z,1021.13
2018-12-13T05:06:48.027Z,1021.16
2018-12-13T05:07:47.527Z,1021.12
2018-12-13T05:08:47.182Z,1021.16
2018-12-13T05:09:47.882Z,1021.14
2018-12-13T05:10:47.156Z,1021.13
2018-12-13T05:11:47.019Z,1021.13
2018-12-13T05:12:47.105Z,1021.12
2018-12-13T05:13:46.981Z,1021.11
2018-12-13T05:14:47.201Z,1021.14
2018-12-13T05:15:47.096Z,1021.15
2018-12-13T05:16:47.083Z,1021.12
2018-12-13T05:17:47.170Z,1021.07
2018-12-13T05:18:47.325Z,1021.05
2018-12-13T05:19:47.310Z,1021.04
2018-12-13T05:20:47.189Z,1021.02
2018-12-13T05:21:47.051Z,1020.96
2018-12-13T05:22:47.351Z,1020.95
2018-12-13T05:23:47.052Z,1020.93
2018-12-13T05:24:47.134Z,1020.88
2018-12-13T05:25:46.994Z,1020.86
2018-12-13T05:26:47.235Z,1020.89
2018-12-13T05:27:47.501Z,1020.9
2018-12-13T05:28:47.772Z,1020.89
2018-12-13T05:29:47.097Z,1020.88
2018-12-13T05:30:47.690Z,1020.83
2018-12-13T05:31:47.018Z,1020.83
2018-12-13T05:32:46.953Z,1020.82
2018-12-13T05:33:47.385Z,1020.81
2018-12-13T05:34:47.140Z,1020.81
2018-12-13T05:35:47.007Z,1020.8
2018-12-13T05:36:47.242Z,1020.81
2018-12-13T05:37:48.558Z,1020.77
2018-12-13T05:38:47.059Z,1020.76
2018-12-13T05:39:47.654Z,1020.79
2018-12-13T05:40:47.411Z,1020.79
2018-12-13T05:41:47.377Z,1020.8
2018-12-13T05:42:46.914Z,1020.76
2018-12-13T05:43:47.486Z,1020.75
2018-12-13T05:44:46.828Z,1020.77
2018-12-13T05:45:47.034Z,1020.77
2018-12-13T05:46:46.967Z,1020.8
2018-12-13T05:47:46.867Z,1020.74
2018-12-13T05:48:47.326Z,1020.7
2018-12-13T05:49:47.154Z,1020.74
2018-12-13T05:50:47.357Z,1020.73
2018-12-13T05:51:47.042Z,1020.67
2018-12-13T05:52:47.565Z,1020.67
2018-12-13T05:53:47.089Z,1020.74
2018-12-13T05:54:47.145Z,1020.7
2018-12-13T05:55:47.155Z,1020.65
2018-12-13T05:56:46.959Z,1020.66
2018-12-13T05:57:47.941Z,1020.69
2018-12-13T05:58:48.046Z,1020.72
2018-12-13T05:59:46.961Z,1020.64
2018-12-13T06:00:47.518Z,1020.7
2018-12-13T06:01:47.195Z,1020.65
2018-12-13T06:02:47.289Z,1020.68
2018-12-13T06:03:47.105Z,1020.65
2018-12-13T06:04:46.883Z,1020.63
2018-12-13T06:05:48.069Z,1020.68
2018-12-13T06:06:48.161Z,1020.62
2018-12-13T06:07:47.102Z,1020.63
2018-12-13T06:08:47.048Z,1020.65
2018-12-13T06:09:47.049Z,1020.66
2018-12-13T06:10:46.989Z,1020.72
2018-12-13T06:11:47.194Z,1020.65
2018-12-13T06:12:47.264Z,1020.66
2018-12-13T06:13:47.435Z,1020.69
2018-12-13T06:14:47.219Z,1020.68
2018-12-13T06:15:46.999Z,1020.71
2018-12-13T06:16:47.081Z,1020.71
2018-12-13T06:17:46.902Z,1020.71
2018-12-13T06:18:47.046Z,1020.66
2018-12-13T06:19:47.324Z,1020.7
2018-12-13T06:20:47.054Z,1020.67
2018-12-13T06:21:47.083Z,1020.65
2018-12-13T06:22:47.003Z,1020.66
2018-12-13T06:23:47.148Z,1020.63
2018-12-13T06:24:46.920Z,1020.65
2018-12-13T06:25:47.021Z,1020.65
2018-12-13T06:26:47.374Z,1020.68
2018-12-13T06:27:47.696Z,1020.69
2018-12-13T06:28:47.086Z,1020.67
2018-12-13T06:29:49.220Z,1020.65
2018-12-13T06:30:47.716Z,1020.66
2018-12-13T06:31:47.162Z,1020.65
2018-12-13T06:32:47.106Z,1020.61
2018-12-13T06:33:47.209Z,1020.63
2018-12-13T06:34:46.919Z,1020.61
2018-12-13T06:35:47.161Z,1020.63
2018-12-13T06:36:46.889Z,1020.66
2018-12-13T06:37:47.034Z,1020.58
2018-12-13T06:38:47.411Z,1020.55
2018-12-13T06:39:47.030Z,1020.62
2018-12-13T06:40:47.515Z,1020.59
2018-12-13T06:41:46.977Z,1020.6
2018-12-13T06:42:47.101Z,1020.56
2018-12-13T06:43:46.866Z,1020.52
2018-12-13T06:44:47.454Z,1020.54
2018-12-13T06:45:47.604Z,1020.56
2018-12-13T06:46:46.919Z,1020.51
2018-12-13T06:47:47.134Z,1020.54
2018-12-13T06:48:46.935Z,1020.51
2018-12-13T06:49:46.960Z,1020.5
2018-12-13T06:50:47.363Z,1020.5
2018-12-13T06:51:47.105Z,1020.52
2018-12-13T06:52:47.669Z,1020.45
2018-12-13T06:53:47.010Z,1020.45
2018-12-13T06:54:46.889Z,1020.42
2018-12-13T06:55:47.498Z,1020.45
2018-12-13T06:56:47.092Z,1020.45
2018-12-13T06:57:47.100Z,1020.42
2018-12-13T06:58:47.332Z,1020.44
2018-12-13T06:59:47.503Z,1020.4
2018-12-13T07:00:46.904Z,1020.44
2018-12-13T07:01:47.127Z,1020.36
2018-12-13T07:02:47.632Z,1020.44
2018-12-13T07:03:46.855Z,1020.38
2018-12-13T07:04:47.286Z,1020.37
2018-12-13T07:05:46.972Z,1020.39
2018-12-13T07:06:47.038Z,1020.45
2018-12-13T07:07:47.002Z,1020.4
2018-12-13T07:08:47.232Z,1020.42
2018-12-13T07:09:47.047Z,1020.46
2018-12-13T07:10:46.905Z,1020.42
2018-12-13T07:11:47.068Z,1020.37
2018-12-13T07:12:46.973Z,1020.43
2018-12-13T07:13:46.983Z,1020.39
2018-12-13T07:14:46.934Z,1020.41
2018-12-13T07:15:46.973Z,1020.5
2018-12-13T07:16:47.434Z,1020.48
2018-12-13T07:17:46.950Z,1020.45
2018-12-13T07:18:47.353Z,1020.47
2018-12-13T07:19:47.101Z,1020.51
2018-12-13T07:20:47.393Z,1020.55
2018-12-13T07:21:47.331Z,1020.56
2018-12-13T07:22:46.999Z,1020.55
2018-12-13T07:23:47.565Z,1020.59
2018-12-13T07:24:46.979Z,1020.64
2018-12-13T07:25:47.011Z,1020.64
2018-12-13T07:26:47.129Z,1020.68
2018-12-13T07:27:47.047Z,1020.68
2018-12-13T07:28:47.419Z,1020.69
2018-12-13T07:29:47.669Z,1020.69
2018-12-13T07:30:47.168Z,1020.71
2018-12-13T07:31:47.331Z,1020.68
2018-12-13T07:32:47.221Z,1020.66
2018-12-13T07:33:47.357Z,1020.72
2018-12-13T07:34:47.264Z,1020.64
2018-12-13T07:35:47.182Z,1020.69
2018-12-13T07:36:47.320Z,1020.67
2018-12-13T07:37:47.392Z,1020.69
2018-12-13T07:38:47.055Z,1020.64
2018-12-13T07:39:47.098Z,1020.67
2018-12-13T07:40:47.309Z,1020.66
2018-12-13T07:41:47.356Z,1020.69
2018-12-13T07:42:47.487Z,1020.68
2018-12-13T07:43:47.121Z,1020.73
2018-12-13T07:44:46.978Z,1020.7
2018-12-13T07:45:47.454Z,1020.73
2018-12-13T07:46:47.453Z,1020.76
2018-12-13T07:47:47.361Z,1020.73
2018-12-13T07:48:46.840Z,1020.75
2018-12-13T07:49:46.905Z,1020.7
2018-12-13T07:50:47.025Z,1020.7
2018-12-13T07:51:46.953Z,1020.72
2018-12-13T07:52:46.830Z,1020.74
2018-12-13T07:53:47.107Z,1020.7
2018-12-13T07:54:47.025Z,1020.7
2018-12-13T07:55:47.092Z,1020.76
2018-12-13T07:56:46.848Z,1020.78
2018-12-13T07:57:46.935Z,1020.73
2018-12-13T07:58:47.524Z,1020.75
2018-12-13T07:59:47.098Z,1020.73
2018-12-13T08:00:47.393Z,1020.75
2018-12-13T08:01:46.896Z,1020.77
2018-12-13T08:02:47.274Z,1020.71
2018-12-13T08:03:46.810Z,1020.74
2018-12-13T08:04:46.938Z,1020.74
2018-12-13T08:05:47.084Z,1020.75
2018-12-13T08:06:47.074Z,1020.72
2018-12-13T08:07:47.033Z,1020.75
2018-12-13T08:08:46.812Z,1020.71
2018-12-13T08:09:47.005Z,1020.74
2018-12-13T08:10:46.762Z,1020.76
2018-12-13T08:11:47.057Z,1020.73
2018-12-13T08:12:47.434Z,1020.74
2018-12-13T08:13:47.285Z,1020.71
2018-12-13T08:14:47.458Z,1020.67
2018-12-13T08:15:47.238Z,1020.73
2018-12-13T08:16:46.935Z,1020.69
2018-12-13T08:17:47.163Z,1020.75
2018-12-13T08:18:47.372Z,1020.71
2018-12-13T08:19:47.491Z,1020.67
2018-12-13T08:20:47.121Z,1020.73
2018-12-13T08:21:47.399Z,1020.7
2018-12-13T08:22:47.203Z,1020.7
2018-12-13T08:23:47.355Z,1020.71
2018-12-13T08:24:47.010Z,1020.67
2018-12-13T08:25:47.003Z,1020.77
2018-12-13T08:26:47.156Z,1020.65
2018-12-13T08:27:47.239Z,1020.67
2018-12-13T08:28:46.989Z,1020.64
2018-12-13T08:29:47.064Z,1020.66
2018-12-13T08:30:47.347Z,1020.67
2018-12-13T08:31:46.912Z,1020.63
2018-12-13T08:32:47.201Z,1020.64
2018-12-13T08:33:47.007Z,1020.6
2018-12-13T08:34:46.929Z,1020.62
2018-12-13T08:35:47.327Z,1020.64
2018-12-13T08:36:47.135Z,1020.66
2018-12-13T08:37:47.040Z,1020.65
2018-12-13T08:38:47.141Z,1020.66
2018-12-13T08:39:47.221Z,1020.62
2018-12-13T08:40:47.180Z,1020.63
2018-12-13T08:41:47.795Z,1020.65
2018-12-13T08:42:47.181Z,1020.67
2018-12-13T08:43:47.249Z,1020.61
2018-12-13T08:44:47.089Z,1020.64
2018-12-13T08:45:47.069Z,1020.66
2018-12-13T08:46:47.256Z,1020.66
2018-12-13T08:47:47.208Z,1020.72
2018-12-13T08:48:46.882Z,1020.73
2018-12-13T08:49:47.289Z,1020.66
2018-12-13T08:50:47.388Z,1020.65
2018-12-13T08:51:46.723Z,1020.66
2018-12-13T08:52:47.106Z,1020.64
2018-12-13T08:53:47.054Z,1020.63
2018-12-13T08:54:47.199Z,1020.64
2018-12-13T08:55:47.414Z,1020.58
2018-12-13T08:56:46.797Z,1020.59
2018-12-13T08:57:46.985Z,1020.6
2018-12-13T08:58:47.087Z,1020.59
2018-12-13T08:59:47.496Z,1020.61
2018-12-13T09:00:46.807Z,1020.61
2018-12-13T09:01:46.840Z,1020.6
2018-12-13T09:02:47.072Z,1020.57
2018-12-13T09:03:47.671Z,1020.54
2018-12-13T09:04:47.137Z,1020.59
2018-12-13T09:05:47.529Z,1020.55
2018-12-13T09:06:46.984Z,1020.6
2018-12-13T09:07:47.125Z,1020.53
2018-12-13T09:08:47.127Z,1020.55
2018-12-13T09:09:47.451Z,1020.56
2018-12-13T09:10:46.817Z,1020.51
2018-12-13T09:11:47.060Z,1020.53
2018-12-13T09:12:46.944Z,1020.56
2018-12-13T09:13:47.157Z,1020.46
2018-12-13T09:14:47.318Z,1020.52
2018-12-13T09:15:47.367Z,1020.54
2018-12-13T09:16:47.387Z,1020.54
2018-12-13T09:17:47.105Z,1020.51
2018-12-13T09:18:46.859Z,1020.5
2018-12-13T09:19:47.440Z,1020.59
2018-12-13T09:20:47.093Z,1020.57
2018-12-13T09:21:47.131Z,1020.53
2018-12-13T09:22:47.110Z,1020.55
2018-12-13T09:23:47.231Z,1020.56
2018-12-13T09:24:46.850Z,1020.54
2018-12-13T09:25:47.472Z,1020.54
2018-12-13T09:26:46.826Z,1020.5
2018-12-13T09:27:47.272Z,1020.49
2018-12-13T09:28:47.386Z,1020.49
2018-12-13T09:29:46.925Z,1020.51
2018-12-13T09:30:47.063Z,1020.47
2018-12-13T09:31:46.863Z,1020.51
2018-12-13T09:32:47.048Z,1020.46
2018-12-13T09:33:46.883Z,1020.45
2018-12-13T09:34:46.909Z,1020.42
2018-12-13T09:35:46.893Z,1020.48
2018-12-13T09:36:46.933Z,1020.44
2018-12-13T09:37:48.039Z,1020.43
2018-12-13T09:38:47.377Z,1020.45
2018-12-13T09:39:47.033Z,1020.44
2018-12-13T09:40:46.960Z,1020.47
2018-12-13T09:41:47.547Z,1020.44
2018-12-13T09:42:47.044Z,1020.46
2018-12-13T09:43:46.941Z,1020.47
2018-12-13T09:44:47.502Z,1020.47
2018-12-13T09:45:47.015Z,1020.47
2018-12-13T09:46:47.023Z,1020.4
2018-12-13T09:47:47.313Z,1020.38
2018-12-13T09:48:46.922Z,1020.42
2018-12-13T09:49:46.838Z,1020.39
2018-12-13T09:50:47.161Z,1020.39
2018-12-13T09:51:47.321Z,1020.35
2018-12-13T09:52:47.119Z,1020.39
2018-12-13T09:53:47.273Z,1020.4
2018-12-13T09:54:47.933Z,1020.37
2018-12-13T09:55:47.217Z,1020.36
2018-12-13T09:56:47.097Z,1020.32
2018-12-13T09:57:47.271Z,1020.32
2018-12-13T09:58:47.374Z,1020.37
2018-12-13T09:59:46.922Z,1020.3
2018-12-13T10:00:47.041Z,1020.39
2018-12-13T10:01:47.118Z,1020.29
2018-12-13T10:02:47.046Z,1020.28
2018-12-13T10:03:46.935Z,1020.21
2018-12-13T10:04:47.037Z,1020.26
2018-12-13T10:05:46.846Z,1020.22
2018-12-13T10:06:47.155Z,1020.18
2018-12-13T10:07:47.261Z,1020.2
2018-12-13T10:08:46.937Z,1020.1
2018-12-13T10:09:46.910Z,1020.12
2018-12-13T10:10:46.888Z,1020.13
2018-12-13T10:11:46.985Z,1020.1
2018-12-13T10:12:46.838Z,1020.1
2018-12-13T10:13:46.862Z,1020.12
2018-12-13T10:14:46.778Z,1020.08
2018-12-13T10:15:47.112Z,1020.1
2018-12-13T10:16:47.016Z,1020.04
2018-12-13T10:17:46.984Z,1019.99
2018-12-13T10:18:47.216Z,1020.02
2018-12-13T10:19:47.226Z,1019.94
2018-12-13T10:20:46.942Z,1019.96
2018-12-13T10:21:46.883Z,1019.95
2018-12-13T10:22:46.904Z,1019.88
2018-12-13T10:23:47.078Z,1019.88
2018-12-13T10:24:47.174Z,1019.9
2018-12-13T10:25:47.053Z,1019.89
2018-12-13T10:26:46.988Z,1019.88
2018-12-13T10:27:47.007Z,1019.82
2018-12-13T10:28:46.799Z,1019.84
2018-12-13T10:29:47.111Z,1019.78
2018-12-13T10:30:47.079Z,1019.88
2018-12-13T10:31:46.895Z,1019.8
2018-12-13T10:32:47.069Z,1019.74
2018-12-13T10:33:47.234Z,1019.75
2018-12-13T10:34:47.346Z,1019.74
2018-12-13T10:35:46.818Z,1019.68
2018-12-13T10:36:47.389Z,1019.72
2018-12-13T10:37:47.283Z,1019.64
2018-12-13T10:38:53.506Z,1019.64
2018-12-13T10:39:46.745Z,1019.63
2018-12-13T10:40:46.866Z,1019.65
2018-12-13T10:41:47.479Z,1019.6
2018-12-13T10:42:46.862Z,1019.57
2018-12-13T10:43:47.101Z,1019.59
2018-12-13T10:44:47.035Z,1019.53
2018-12-13T10:45:47.122Z,1019.58
2018-12-13T10:46:47.053Z,1019.55
2018-12-13T10:47:47.268Z,1019.53
2018-12-13T10:48:47.018Z,1019.58
2018-12-13T10:49:47.135Z,1019.54
2018-12-13T10:50:46.938Z,1019.59
2018-12-13T10:51:47.317Z,1019.55
2018-12-13T10:52:47.037Z,1019.53
2018-12-13T10:53:47.003Z,1019.52
2018-12-13T10:54:47.262Z,1019.48
2018-12-13T10:55:47.200Z,1019.53
2018-12-13T10:56:46.682Z,1019.5
2018-12-13T10:57:47.668Z,1019.52
2018-12-13T10:58:46.982Z,1019.51
2018-12-13T10:59:46.902Z,1019.43
2018-12-13T11:00:47.407Z,1019.45
2018-12-13T11:01:47.425Z,1019.45
2018-12-13T11:02:46.917Z,1019.48
2018-12-13T11:03:46.765Z,1019.45
2018-12-13T11:04:46.922Z,1019.43
2018-12-13T11:05:46.823Z,1019.4
2018-12-13T11:06:46.950Z,1019.43
2018-12-13T11:07:47.250Z,1019.41
2018-12-13T11:08:47.269Z,1019.45
2018-12-13T11:09:47.177Z,1019.38
2018-12-13T11:10:47.513Z,1019.48
2018-12-13T11:11:47.225Z,1019.48
2018-12-13T11:12:47.633Z,1019.46
2018-12-13T11:13:47.082Z,1019.5
2018-12-13T11:14:47.033Z,1019.49
2018-12-13T11:15:47.041Z,1019.46
2018-12-13T11:16:47.077Z,1019.47
2018-12-13T11:17:47.162Z,1019.43
2018-12-13T11:18:47.171Z,1019.43
2018-12-13T11:19:47.142Z,1019.44
2018-12-13T11:20:47.153Z,1019.39
2018-12-13T11:21:46.867Z,1019.44
2018-12-13T11:22:47.062Z,1019.39
2018-12-13T11:23:47.053Z,1019.42
2018-12-13T11:24:47.645Z,1019.45
2018-12-13T11:25:47.125Z,1019.52
2018-12-13T11:26:46.852Z,1019.41
2018-12-13T11:27:47.196Z,1019.51
2018-12-13T11:28:46.926Z,1019.49
2018-12-13T11:29:46.888Z,1019.52
2018-12-13T11:30:46.982Z,1019.54
2018-12-13T11:31:47.147Z,1019.55
2018-12-13T11:32:47.886Z,1019.55
2018-12-13T11:33:47.332Z,1019.59
2018-12-13T11:34:46.996Z,1019.53
2018-12-13T11:35:47.186Z,1019.46
2018-12-13T11:36:47.148Z,1019.5
2018-12-13T11:37:47.375Z,1019.53
2018-12-13T11:38:47.410Z,1019.52
2018-12-13T11:39:47.035Z,1019.52
2018-12-13T11:40:46.853Z,1019.55
2018-12-13T11:41:47.030Z,1019.55
2018-12-13T11:42:47.016Z,1019.55
2018-12-13T11:43:46.933Z,1019.55
2018-12-13T11:44:47.054Z,1019.48
2018-12-13T11:45:46.751Z,1019.57
2018-12-13T11:46:47.076Z,1019.51
2018-12-13T11:47:46.913Z,1019.55
2018-12-13T11:48:47.455Z,1019.5
2018-12-13T11:49:46.943Z,1019.45
2018-12-13T11:50:46.819Z,1019.5
2018-12-13T11:51:48.391Z,1019.46
2018-12-13T11:52:47.369Z,1019.52
2018-12-13T11:53:47.053Z,1019.52
2018-12-13T11:54:47.158Z,1019.5
2018-12-13T11:55:47.626Z,1019.45
2018-12-13T11:56:46.916Z,1019.44
2018-12-13T11:57:47.024Z,1019.45
2018-12-13T11:58:46.925Z,1019.42
2018-12-13T11:59:46.891Z,1019.36
2018-12-13T12:00:46.864Z,1019.44
2018-12-13T12:01:46.852Z,1019.4
2018-12-13T12:02:47.021Z,1019.46
2018-12-13T12:03:46.844Z,1019.37
2018-12-13T12:04:46.949Z,1019.36
2018-12-13T12:05:46.830Z,1019.37
2018-12-13T12:06:46.877Z,1019.38
2018-12-13T12:07:46.899Z,1019.35
2018-12-13T12:08:46.883Z,1019.37